Time;durP1;ratioP1;P1;durP2;ratioP2;P2;SDS_P1;SDS_P2;PMS_P1;PMS_P2;Temp;Humidity;BMP_temperature;BMP_pressure;BME280_temperature;BME280_humidity;BME280_pressure;Samples;Min_cycle;Max_cycle;Signal;HPM_P1;HPM_P2
2024/02/10 00:00:19;;;;;;;15.35;13.75;;;11.50;99.90;;;;;;5114430;27;20271;-78
2024/02/10 00:02:47;;;;;;;16.75;13.82;;;11.50;99.90;;;;;;5113648;27;20210;-79
2024/02/10 00:05:16;;;;;;;14.90;13.40;;;11.50;99.90;;;;;;5134027;27;20214;-78
2024/02/10 00:07:45;;;;;;;15.68;14.07;;;11.50;99.90;;;;;;5133539;27;20228;-78
2024/02/10 00:10:13;;;;;;;18.88;13.75;;;11.50;99.90;;;;;;5134470;27;20244;-77
2024/02/10 00:12:40;;;;;;;14.63;13.07;;;11.50;99.90;;;;;;5132059;27;20229;-79
2024/02/10 00:15:10;;;;;;;13.30;11.88;;;11.50;99.90;;;;;;5128954;27;20717;-77
2024/02/10 00:17:40;;;;;;;13.75;12.35;;;11.50;99.90;;;;;;5113235;28;20226;-77
2024/02/10 00:20:15;;;;;;;12.95;11.55;;;11.50;99.90;;;;;;5114262;28;20224;-79
2024/02/10 00:22:43;;;;;;;15.60;12.50;;;11.50;99.90;;;;;;5132919;27;20218;-78
2024/02/10 00:25:10;;;;;;;13.07;11.82;;;11.50;99.90;;;;;;5113947;27;20225;-78
2024/02/10 00:27:40;;;;;;;13.13;11.05;;;11.50;99.90;;;;;;5113545;28;20224;-78
2024/02/10 00:30:10;;;;;;;14.85;11.75;;;11.50;99.90;;;;;;5114321;28;20218;-78
2024/02/10 00:32:37;;;;;;;14.57;13.07;;;11.50;99.90;;;;;;5113294;28;20222;-79
2024/02/10 00:35:05;;;;;;;15.68;14.07;;;11.50;99.90;;;;;;5112540;28;20723;-76
2024/02/10 00:37:32;;;;;;;16.08;14.38;;;11.50;99.90;;;;;;5112147;28;20215;-79
2024/02/10 00:40:01;;;;;;;18.17;16.25;;;11.50;99.90;;;;;;5112793;28;20214;-79
2024/02/10 00:42:34;;;;;;;15.27;13.65;;;11.50;99.90;;;;;;5112767;28;20580;-79
2024/02/10 00:45:03;;;;;;;16.98;13.68;;;11.50;99.90;;;;;;5112574;28;20225;-77
2024/02/10 00:47:31;;;;;;;16.05;13.90;;;11.50;99.90;;;;;;5115831;28;20224;-77
2024/02/10 00:50:01;;;;;;;13.10;11.75;;;11.50;99.90;;;;;;5125433;28;20306;-76
2024/02/10 00:52:28;;;;;;;11.07;9.57;;;11.50;99.90;;;;;;5114163;28;20226;-77
2024/02/10 00:54:55;;;;;;;12.52;11.18;;;11.60;99.90;;;;;;5112955;28;20222;-76
2024/02/10 00:57:49;;;;;;;14.07;11.05;;;11.60;99.90;;;;;;5133591;28;20222;-76
2024/02/10 01:00:17;;;;;;;16.02;12.02;;;11.60;99.90;;;;;;5113811;28;20648;-76
2024/02/10 01:02:47;;;;;;;14.70;11.07;;;11.70;99.90;;;;;;5112830;28;20301;-75
2024/02/10 01:05:14;;;;;;;12.18;10.95;;;11.70;99.90;;;;;;5112895;28;20222;-75
2024/02/10 01:07:43;;;;;;;11.48;10.30;;;11.70;99.90;;;;;;5113330;28;20658;-78
2024/02/10 01:10:11;;;;;;;11.63;10.52;;;11.60;99.90;;;;;;5114410;28;20227;-79
2024/02/10 01:12:38;;;;;;;12.25;10.38;;;11.70;99.90;;;;;;5114190;28;20308;-78
2024/02/10 01:15:07;;;;;;;10.35;9.40;;;11.70;99.90;;;;;;5113656;28;20219;-76
2024/02/10 01:17:34;;;;;;;15.05;10.27;;;11.70;99.90;;;;;;5113345;28;20305;-76
2024/02/10 01:20:06;;;;;;;11.85;10.57;;;11.70;99.90;;;;;;5124052;28;20233;-79
2024/02/10 01:22:33;;;;;;;10.45;9.45;;;11.70;99.90;;;;;;5133142;28;20234;-76
2024/02/10 01:25:01;;;;;;;11.88;10.68;;;11.70;99.90;;;;;;5127252;28;20214;-78
2024/02/10 01:27:28;;;;;;;13.27;11.98;;;11.70;99.90;;;;;;5129968;28;20221;-76
2024/02/10 01:29:56;;;;;;;10.70;9.65;;;11.70;99.90;;;;;;5114190;28;20222;-79
2024/02/10 01:32:23;;;;;;;12.65;10.70;;;11.70;99.90;;;;;;5111795;28;20264;-76
2024/02/10 01:34:53;;;;;;;11.13;10.02;;;11.60;99.90;;;;;;5124106;27;20344;-76
2024/02/10 01:37:22;;;;;;;11.82;10.73;;;11.70;99.90;;;;;;5137244;27;20256;-76
2024/02/10 01:39:53;;;;;;;10.32;9.25;;;11.70;99.90;;;;;;5118720;27;20222;-78
2024/02/10 01:42:37;;;;;;;11.18;10.02;;;11.60;99.90;;;;;;5116778;28;20284;-79
2024/02/10 01:45:07;;;;;;;11.15;9.70;;;11.60;99.90;;;;;;5114909;28;20226;-76
2024/02/10 01:47:37;;;;;;;11.30;10.30;;;11.60;99.90;;;;;;5116129;27;20288;-76
2024/02/10 01:50:05;;;;;;;12.25;11.05;;;11.60;99.90;;;;;;5115902;27;20717;-76
2024/02/10 01:52:35;;;;;;;12.35;11.15;;;11.60;99.90;;;;;;5116110;28;20222;-79
2024/02/10 01:55:03;;;;;;;13.45;10.40;;;11.60;99.90;;;;;;5115858;27;20313;-78
2024/02/10 01:57:30;;;;;;;12.68;11.32;;;11.60;99.90;;;;;;5116315;28;20310;-78
2024/02/10 02:00:01;;;;;;;14.05;12.57;;;11.70;99.90;;;;;;5116794;27;20219;-79
2024/02/10 02:02:31;;;;;;;14.70;11.35;;;11.60;99.90;;;;;;5115425;28;20745;-79
2024/02/10 02:04:59;;;;;;;18.95;13.43;;;11.70;99.90;;;;;;5121022;27;20252;-78
2024/02/10 02:07:28;;;;;;;15.68;12.07;;;11.70;99.90;;;;;;5136325;27;20218;-78
2024/02/10 02:09:56;;;;;;;14.23;12.43;;;11.70;99.90;;;;;;5135946;27;20222;-79
2024/02/10 02:12:24;;;;;;;14.77;11.57;;;11.70;99.90;;;;;;5135851;27;20226;-79
2024/02/10 02:14:54;;;;;;;13.50;11.60;;;11.70;99.90;;;;;;5136366;27;20304;-76
2024/02/10 02:17:24;;;;;;;13.35;11.60;;;11.70;99.90;;;;;;5136038;27;20245;-76
2024/02/10 02:19:52;;;;;;;11.70;10.20;;;11.70;99.90;;;;;;5135927;27;20229;-76
2024/02/10 02:22:19;;;;;;;12.57;11.23;;;11.70;99.90;;;;;;5135781;27;20226;-79
2024/02/10 02:24:47;;;;;;;12.63;10.20;;;11.70;99.90;;;;;;5135848;27;20221;-76
2024/02/10 02:27:17;;;;;;;13.93;11.75;;;11.70;99.90;;;;;;5135469;27;20222;-79
2024/02/10 02:29:44;;;;;;;10.25;9.25;;;11.70;99.90;;;;;;5135877;27;20213;-78
2024/02/10 02:32:12;;;;;;;10.93;9.82;;;11.70;99.90;;;;;;5136131;27;20219;-76
2024/02/10 02:34:41;;;;;;;12.20;9.98;;;11.70;99.90;;;;;;5135471;27;20698;-76
2024/02/10 02:37:08;;;;;;;11.63;10.05;;;11.70;99.90;;;;;;5136349;27;20237;-76
2024/02/10 02:39:36;;;;;;;10.20;9.20;;;11.70;99.90;;;;;;5136567;27;20394;-79
2024/02/10 02:42:06;;;;;;;10.60;9.50;;;11.80;99.90;;;;;;5136822;27;20243;-77
2024/02/10 02:44:36;;;;;;;11.60;10.40;;;11.80;99.90;;;;;;5136078;27;20291;-76
2024/02/10 02:47:04;;;;;;;13.13;8.70;;;11.80;99.90;;;;;;5135065;27;20244;-76
2024/02/10 02:49:32;;;;;;;13.23;9.45;;;11.80;99.90;;;;;;5135557;27;20286;-79
2024/02/10 02:51:59;;;;;;;9.88;8.88;;;11.80;99.90;;;;;;5135825;27;20229;-76
2024/02/10 02:54:26;;;;;;;11.48;10.45;;;11.80;99.90;;;;;;5135238;27;20222;-77
2024/02/10 02:56:54;;;;;;;11.40;8.73;;;11.80;99.90;;;;;;5135991;27;20237;-76
2024/02/10 02:59:23;;;;;;;11.35;9.57;;;11.80;99.90;;;;;;5135310;27;20222;-75
2024/02/10 03:01:51;;;;;;;11.38;9.38;;;11.80;99.90;;;;;;5135934;27;20237;-75
2024/02/10 03:04:19;;;;;;;10.65;9.50;;;11.80;99.90;;;;;;5134966;27;20683;-78
2024/02/10 03:06:50;;;;;;;13.50;11.70;;;11.80;99.90;;;;;;5135704;27;20225;-78
2024/02/10 03:09:17;;;;;;;14.95;11.40;;;11.80;99.90;;;;;;5135679;27;20233;-75
2024/02/10 03:11:49;;;;;;;15.00;12.15;;;11.80;99.90;;;;;;5135311;27;20206;-77
2024/02/10 03:14:17;;;;;;;13.95;11.10;;;11.90;99.90;;;;;;5135328;27;20230;-74
2024/02/10 03:16:45;;;;;;;22.60;16.38;;;11.90;99.90;;;;;;5134645;27;20340;-78
2024/02/10 03:19:13;;;;;;;28.27;17.55;;;11.90;99.90;;;;;;5135398;27;20222;-77
2024/02/10 03:21:40;;;;;;;17.00;13.80;;;11.90;99.90;;;;;;5135091;27;20226;-80
2024/02/10 03:24:07;;;;;;;17.38;13.88;;;11.90;99.90;;;;;;5135714;27;20233;-80
2024/02/10 03:26:36;;;;;;;17.50;13.82;;;12.00;99.90;;;;;;5134687;27;20218;-77
2024/02/10 03:29:04;;;;;;;16.52;13.50;;;12.00;99.90;;;;;;5124389;27;20290;-79
2024/02/10 03:31:32;;;;;;;15.00;12.02;;;12.00;99.90;;;;;;5133950;27;20225;-79
2024/02/10 03:34:03;;;;;;;16.45;12.93;;;12.00;99.90;;;;;;5134844;27;20221;-79
2024/02/10 03:36:30;;;;;;;21.73;14.85;;;12.00;99.90;;;;;;5134396;27;20236;-79
2024/02/10 03:39:03;;;;;;;11.75;10.00;;;12.10;99.90;;;;;;5134492;27;20234;-79
2024/02/10 03:41:30;;;;;;;25.83;14.45;;;12.10;99.90;;;;;;5134771;27;20218;-79
2024/02/10 03:43:57;;;;;;;18.73;13.13;;;12.00;99.90;;;;;;5133111;27;20644;-76
2024/02/10 03:46:25;;;;;;;20.30;15.60;;;12.00;99.90;;;;;;5135135;27;20222;-76
2024/02/10 03:48:52;;;;;;;18.60;15.10;;;12.10;99.90;;;;;;5134225;27;20739;-76
2024/02/10 03:51:21;;;;;;;15.57;13.55;;;12.00;99.90;;;;;;5134590;27;20222;-76
2024/02/10 03:53:55;;;;;;;18.50;15.95;;;12.00;99.90;;;;;;5134135;27;20218;-76
2024/02/10 03:56:23;;;;;;;19.52;16.33;;;12.00;99.90;;;;;;5134789;27;20217;-76
2024/02/10 03:58:51;;;;;;;19.75;17.00;;;12.10;99.90;;;;;;5133384;27;20228;-78
2024/02/10 04:01:18;;;;;;;18.92;15.85;;;12.00;99.90;;;;;;5135214;27;20218;-79
2024/02/10 04:03:46;;;;;;;15.77;13.25;;;12.00;99.90;;;;;;5134527;27;20217;-78
2024/02/10 04:06:15;;;;;;;17.35;14.05;;;12.00;99.90;;;;;;5134637;27;20563;-76
2024/02/10 04:08:45;;;;;;;14.68;13.13;;;11.90;99.90;;;;;;5134031;27;20275;-76
2024/02/10 04:11:12;;;;;;;13.82;12.48;;;12.00;99.90;;;;;;5133591;27;20754;-76
2024/02/10 04:13:41;;;;;;;13.50;12.15;;;12.00;99.90;;;;;;5133718;27;20595;-75
2024/02/10 04:16:12;;;;;;;13.15;9.77;;;12.00;99.90;;;;;;5134524;27;20217;-76
2024/02/10 04:18:40;;;;;;;10.07;9.07;;;12.00;99.90;;;;;;5134360;27;20659;-77
2024/02/10 04:21:10;;;;;;;9.98;8.18;;;12.00;99.90;;;;;;5132132;27;20221;-76
2024/02/10 04:23:39;;;;;;;7.90;7.10;;;12.00;99.90;;;;;;5134630;27;20226;-78
2024/02/10 04:26:09;;;;;;;8.52;7.75;;;12.00;99.90;;;;;;5133996;27;20222;-77
2024/02/10 04:28:36;;;;;;;8.52;7.72;;;12.10;99.90;;;;;;5134806;27;20245;-77
2024/02/10 04:31:03;;;;;;;12.82;8.98;;;12.10;99.90;;;;;;5132732;27;20257;-77
2024/02/10 04:33:30;;;;;;;9.80;8.38;;;12.10;99.90;;;;;;5134692;27;20226;-76
2024/02/10 04:35:57;;;;;;;9.20;7.55;;;12.10;99.90;;;;;;5133243;28;20222;-81
2024/02/10 04:38:25;;;;;;;10.30;9.27;;;12.10;99.90;;;;;;5134989;28;20235;-79
2024/02/10 04:40:52;;;;;;;9.65;8.52;;;12.10;99.90;;;;;;5134241;28;20225;-79
2024/02/10 04:43:20;;;;;;;7.65;7.00;;;12.10;99.90;;;;;;5132642;28;20271;-76
2024/02/10 04:45:48;;;;;;;9.45;8.65;;;12.10;99.90;;;;;;5133561;28;20214;-77
2024/02/10 04:48:17;;;;;;;8.40;6.45;;;12.10;99.90;;;;;;5134710;28;20222;-79
2024/02/10 04:50:45;;;;;;;8.30;7.22;;;12.20;99.90;;;;;;5134484;28;20315;-79
2024/02/10 04:53:14;;;;;;;8.70;6.57;;;12.20;99.90;;;;;;5133809;28;20308;-76
2024/02/10 04:55:44;;;;;;;9.55;7.38;;;12.20;99.90;;;;;;5134521;28;20224;-79
2024/02/10 04:58:12;;;;;;;9.15;8.13;;;12.20;99.90;;;;;;5132916;28;20214;-79
2024/02/10 05:00:43;;;;;;;7.15;6.55;;;12.20;99.90;;;;;;5131495;28;20230;-79
2024/02/10 05:03:10;;;;;;;7.85;7.20;;;12.20;99.90;;;;;;5133689;28;20712;-76
2024/02/10 05:05:37;;;;;;;7.53;6.75;;;12.30;99.90;;;;;;5133627;28;20235;-77
2024/02/10 05:08:06;;;;;;;7.22;6.63;;;12.30;99.90;;;;;;5132344;27;20218;-77
2024/02/10 05:10:38;;;;;;;7.22;6.53;;;12.30;99.90;;;;;;5136701;27;20591;-76
2024/02/10 05:13:06;;;;;;;6.90;6.30;;;12.30;99.90;;;;;;5137074;27;20222;-79
2024/02/10 05:15:33;;;;;;;8.07;6.82;;;12.30;99.90;;;;;;5137869;27;20274;-78
2024/02/10 05:18:04;;;;;;;10.73;7.90;;;12.30;99.90;;;;;;5137543;27;20222;-76
2024/02/10 05:20:33;;;;;;;9.82;7.55;;;12.30;99.90;;;;;;5137887;27;20217;-78
2024/02/10 05:23:05;;;;;;;6.35;5.85;;;12.30;99.90;;;;;;5136505;27;20309;-76
2024/02/10 05:25:35;;;;;;;6.63;6.03;;;12.30;99.90;;;;;;5137861;27;20240;-78
2024/02/10 05:28:02;;;;;;;8.00;7.20;;;12.30;99.90;;;;;;5137314;27;20229;-76
2024/02/10 05:30:30;;;;;;;8.07;6.82;;;12.30;99.90;;;;;;5137621;27;20214;-79
2024/02/10 05:33:00;;;;;;;10.82;8.35;;;12.30;99.90;;;;;;5136407;27;20329;-76
2024/02/10 05:35:29;;;;;;;8.23;7.43;;;12.30;99.90;;;;;;5136206;27;20217;-77
2024/02/10 05:37:58;;;;;;;10.55;6.93;;;12.20;99.90;;;;;;5136705;27;20242;-77
2024/02/10 05:43:08;;;;;;;11.38;8.27;;;12.20;99.90;;;;;;5134261;27;20254;-76
2024/02/10 05:45:38;;;;;;;8.48;6.40;;;12.20;99.90;;;;;;5136064;27;20229;-76
2024/02/10 05:48:06;;;;;;;8.82;7.22;;;12.20;99.90;;;;;;5136546;27;20226;-76
2024/02/10 05:50:37;;;;;;;7.22;6.60;;;12.20;99.90;;;;;;5137019;27;20304;-79
2024/02/10 05:53:05;;;;;;;8.30;7.25;;;12.20;99.90;;;;;;5136906;27;20217;-79
2024/02/10 05:55:33;;;;;;;8.35;7.40;;;12.20;99.90;;;;;;5137092;27;20226;-79
2024/02/10 05:58:01;;;;;;;7.18;6.43;;;12.20;99.90;;;;;;5136201;27;20244;-77
2024/02/10 06:00:31;;;;;;;7.07;6.30;;;12.20;99.90;;;;;;5135564;27;20604;-76
2024/02/10 06:03:04;;;;;;;7.85;6.47;;;12.30;99.90;;;;;;5135738;27;20226;-79
2024/02/10 06:05:31;;;;;;;7.18;6.47;;;12.30;99.90;;;;;;5136944;27;20333;-78
2024/02/10 06:08:00;;;;;;;6.28;5.78;;;12.30;99.90;;;;;;5136983;27;20702;-78
2024/02/10 06:10:28;;;;;;;7.53;6.35;;;12.30;99.90;;;;;;5135940;27;20271;-79
2024/02/10 06:12:55;;;;;;;6.50;5.88;;;12.30;99.90;;;;;;5136135;27;20281;-78
2024/02/10 06:15:23;;;;;;;6.82;6.13;;;12.40;99.90;;;;;;5136304;27;20222;-77
2024/02/10 06:17:56;;;;;;;7.10;5.78;;;12.40;99.90;;;;;;5136688;27;20705;-76
2024/02/10 06:20:25;;;;;;;5.78;5.28;;;12.40;99.90;;;;;;5134307;27;20225;-76
2024/02/10 06:22:53;;;;;;;5.22;4.82;;;12.40;99.90;;;;;;5136583;27;20222;-77
2024/02/10 06:25:24;;;;;;;6.60;5.80;;;12.50;99.90;;;;;;5136190;27;20234;-79
2024/02/10 06:27:52;;;;;;;6.05;5.45;;;12.50;99.90;;;;;;5136361;27;20561;-79
2024/02/10 06:30:21;;;;;;;6.45;5.43;;;12.50;99.90;;;;;;5135783;27;20229;-78
2024/02/10 06:32:49;;;;;;;5.25;4.85;;;12.50;99.90;;;;;;5136433;27;20246;-77
2024/02/10 06:35:16;;;;;;;7.55;5.43;;;12.50;99.90;;;;;;5135457;27;20218;-79
2024/02/10 06:37:46;;;;;;;5.45;4.95;;;12.50;99.90;;;;;;5136407;27;20308;-79
2024/02/10 06:40:17;;;;;;;5.70;5.20;;;12.50;99.90;;;;;;5135973;27;20217;-77
2024/02/10 06:42:48;;;;;;;6.95;6.25;;;12.50;99.90;;;;;;5136295;27;20675;-77
2024/02/10 06:45:20;;;;;;;5.95;5.18;;;12.50;99.90;;;;;;5135687;27;20222;-79
2024/02/10 06:47:50;;;;;;;5.68;5.28;;;12.50;99.90;;;;;;5136336;27;20621;-79
2024/02/10 06:50:23;;;;;;;5.88;5.43;;;12.50;99.90;;;;;;5135704;27;20238;-78
2024/02/10 06:52:51;;;;;;;6.97;5.45;;;12.50;99.90;;;;;;5136067;27;20230;-79
2024/02/10 06:55:26;;;;;;;5.88;5.18;;;12.50;99.90;;;;;;5135666;27;20218;-76
2024/02/10 06:57:56;;;;;;;5.38;4.82;;;12.50;99.90;;;;;;5135537;27;20236;-77
2024/02/10 07:00:27;;;;;;;4.65;4.25;;;12.50;99.90;;;;;;5134951;27;20264;-77
2024/02/10 07:02:56;;;;;;;4.95;4.65;;;12.50;99.90;;;;;;5135692;27;20676;-79
2024/02/10 07:05:26;;;;;;;5.97;5.47;;;12.50;99.90;;;;;;5133760;27;20241;-79
2024/02/10 07:07:53;;;;;;;6.70;5.40;;;12.50;99.90;;;;;;5124945;27;20253;-79
2024/02/10 07:10:22;;;;;;;5.43;4.90;;;12.50;99.90;;;;;;5118365;27;20227;-77
2024/02/10 07:12:53;;;;;;;5.88;5.47;;;12.50;99.90;;;;;;5115572;27;20542;-79
2024/02/10 07:15:23;;;;;;;5.95;5.45;;;12.50;99.90;;;;;;5134615;27;20251;-77
2024/02/10 07:17:52;;;;;;;5.28;4.80;;;12.60;99.90;;;;;;5135661;27;20244;-77
2024/02/10 07:20:20;;;;;;;6.63;6.10;;;12.60;99.90;;;;;;5124295;27;20218;-79
2024/02/10 07:22:49;;;;;;;5.25;4.85;;;12.60;99.90;;;;;;5134604;27;20236;-78
2024/02/10 07:25:15;;;;;;;7.30;6.60;;;12.60;99.90;;;;;;5134857;27;20218;-77
2024/02/10 07:27:45;;;;;;;6.70;6.15;;;12.60;99.90;;;;;;5134884;27;20217;-77
2024/02/10 07:30:21;;;;;;;5.57;4.82;;;12.70;99.90;;;;;;5135437;27;20221;-77
2024/02/10 07:32:51;;;;;;;5.60;5.05;;;12.70;99.90;;;;;;5134761;27;20225;-79
2024/02/10 07:35:21;;;;;;;6.38;5.78;;;12.70;99.90;;;;;;5124324;27;20226;-79
2024/02/10 07:37:49;;;;;;;6.30;5.70;;;12.70;99.90;;;;;;5134452;27;20221;-79
2024/02/10 07:40:16;;;;;;;5.50;5.10;;;12.80;99.90;;;;;;5135066;27;20226;-79
2024/02/10 07:42:43;;;;;;;7.10;6.45;;;12.80;99.90;;;;;;5133977;27;20228;-77
2024/02/10 07:45:11;;;;;;;6.88;6.28;;;12.80;99.90;;;;;;5135289;27;20230;-79
2024/02/10 07:47:44;;;;;;;7.32;6.72;;;12.80;99.90;;;;;;5134692;27;20226;-77
2024/02/10 07:50:13;;;;;;;6.38;5.80;;;12.80;99.90;;;;;;5134973;27;20258;-79
2024/02/10 07:52:40;;;;;;;6.25;5.65;;;12.80;99.90;;;;;;5134065;27;20325;-79
2024/02/10 07:55:12;;;;;;;5.15;4.75;;;12.80;99.90;;;;;;5133102;27;20217;-77
2024/02/10 07:57:39;;;;;;;9.77;8.77;;;12.80;99.90;;;;;;5132776;27;20230;-78
2024/02/10 08:00:09;;;;;;;7.97;7.18;;;12.90;99.90;;;;;;5134871;27;20260;-79
2024/02/10 08:02:37;;;;;;;6.78;6.18;;;12.80;99.90;;;;;;5134032;27;20222;-76
2024/02/10 08:05:04;;;;;;;6.50;5.85;;;12.90;99.90;;;;;;5134747;27;20652;-76
2024/02/10 08:07:33;;;;;;;5.95;5.35;;;12.90;99.90;;;;;;5134662;27;20228;-76
2024/02/10 08:10:01;;;;;;;7.18;6.53;;;12.90;99.90;;;;;;5134400;27;20583;-76
2024/02/10 08:12:33;;;;;;;6.03;5.40;;;12.90;99.90;;;;;;5133706;27;20222;-76
2024/02/10 08:15:02;;;;;;;6.00;5.53;;;12.80;99.90;;;;;;5133151;27;20240;-75
2024/02/10 08:17:36;;;;;;;6.10;5.60;;;12.90;99.90;;;;;;5134781;27;20271;-79
2024/02/10 08:20:04;;;;;;;6.45;5.85;;;12.90;99.90;;;;;;5127523;27;20225;-79
2024/02/10 08:22:34;;;;;;;5.43;5.03;;;12.90;99.90;;;;;;5134791;27;20683;-77
2024/02/10 08:25:04;;;;;;;5.82;5.30;;;12.90;99.90;;;;;;5134018;27;20619;-80
2024/02/10 08:27:32;;;;;;;5.75;5.25;;;13.00;99.90;;;;;;5134650;27;20613;-77
2024/02/10 08:30:03;;;;;;;6.18;5.65;;;13.00;99.90;;;;;;5119654;27;20308;-80
2024/02/10 08:32:31;;;;;;;5.53;5.03;;;13.00;99.90;;;;;;5134111;27;20278;-77
2024/02/10 08:35:00;;;;;;;6.40;4.95;;;13.00;99.90;;;;;;5131847;27;20298;-77
2024/02/10 08:37:29;;;;;;;6.03;5.53;;;13.00;99.90;;;;;;5134122;27;20209;-77
2024/02/10 08:39:57;;;;;;;5.72;5.22;;;13.10;99.90;;;;;;5134147;28;20580;-79
2024/02/10 08:42:27;;;;;;;6.18;5.57;;;13.10;99.90;;;;;;5134291;28;20229;-80
2024/02/10 08:44:54;;;;;;;5.60;5.13;;;13.10;99.90;;;;;;5136092;27;20229;-77
2024/02/10 08:47:21;;;;;;;6.78;6.13;;;13.10;99.90;;;;;;5138464;27;20305;-77
2024/02/10 08:49:49;;;;;;;4.80;4.50;;;13.10;99.90;;;;;;5137553;27;20312;-79
2024/02/10 08:52:16;;;;;;;6.40;5.90;;;13.20;99.90;;;;;;5138567;27;20229;-79
2024/02/10 08:54:46;;;;;;;6.00;5.45;;;13.20;99.90;;;;;;5138590;27;20217;-76
2024/02/10 08:57:15;;;;;;;6.32;5.72;;;13.20;99.90;;;;;;5138054;27;20214;-79
2024/02/10 08:59:45;;;;;;;6.00;5.50;;;13.20;99.90;;;;;;5138998;27;20820;-79
2024/02/10 09:02:13;;;;;;;6.05;5.55;;;13.30;99.90;;;;;;5135731;27;20214;-77
2024/02/10 09:04:44;;;;;;;6.55;5.95;;;13.30;99.90;;;;;;5137367;27;20687;-76
2024/02/10 09:07:12;;;;;;;7.53;6.90;;;13.30;99.90;;;;;;5137206;27;20218;-76
2024/02/10 09:09:42;;;;;;;6.63;5.75;;;13.30;99.90;;;;;;5138299;27;20308;-76
2024/02/10 09:12:09;;;;;;;6.53;6.03;;;13.40;99.90;;;;;;5136895;27;20214;-77
2024/02/10 09:14:36;;;;;;;7.07;6.20;;;13.40;99.90;;;;;;5138201;27;21059;-77
2024/02/10 09:17:04;;;;;;;7.63;6.88;;;13.40;99.90;;;;;;5137586;27;20885;-77
2024/02/10 09:19:35;;;;;;;6.90;5.90;;;13.50;99.90;;;;;;5137828;27;20214;-76
2024/02/10 09:22:03;;;;;;;6.80;6.30;;;13.50;99.90;;;;;;5142881;27;20806;-78
2024/02/10 09:24:30;;;;;;;8.10;7.30;;;13.50;99.90;;;;;;5138965;27;20245;-77
2024/02/10 09:26:58;;;;;;;7.10;6.50;;;13.50;99.90;;;;;;5139036;27;20255;-80
2024/02/10 09:29:26;;;;;;;9.07;8.27;;;13.50;99.90;;;;;;5138426;27;20361;-78
2024/02/10 09:31:59;;;;;;;8.93;7.70;;;13.50;99.90;;;;;;5137521;27;20218;-78
2024/02/10 09:34:28;;;;;;;7.00;6.30;;;13.50;99.90;;;;;;5137099;27;20458;-78
2024/02/10 09:36:59;;;;;;;8.38;7.68;;;13.50;99.90;;;;;;5137544;27;20222;-79
2024/02/10 09:39:27;;;;;;;7.80;7.17;;;13.50;99.90;;;;;;5136788;27;20651;-78
2024/02/10 09:41:59;;;;;;;7.80;7.10;;;13.50;99.90;;;;;;5134982;27;20571;-79
2024/02/10 09:44:26;;;;;;;7.32;6.75;;;13.50;99.90;;;;;;5136789;27;20237;-78
2024/02/10 09:46:56;;;;;;;8.05;7.40;;;13.50;99.90;;;;;;5137564;27;20318;-76
2024/02/10 09:49:25;;;;;;;9.07;8.17;;;13.50;99.90;;;;;;5136597;27;20230;-76
2024/02/10 09:51:54;;;;;;;8.23;7.43;;;13.60;99.90;;;;;;5136567;27;21041;-79
2024/02/10 09:54:21;;;;;;;7.80;7.00;;;13.60;99.90;;;;;;5136594;27;20517;-79
2024/02/10 09:56:51;;;;;;;7.53;6.95;;;13.70;99.90;;;;;;5137182;27;20474;-79
2024/02/10 09:59:33;;;;;;;9.40;8.50;;;13.70;99.90;;;;;;5125208;27;20222;-79
2024/02/10 10:02:00;;;;;;;8.07;7.15;;;13.80;99.90;;;;;;5136229;27;20226;-79
2024/02/10 10:04:27;;;;;;;8.07;7.38;;;13.80;99.90;;;;;;5136567;27;20226;-77
2024/02/10 10:07:01;;;;;;;7.65;6.75;;;13.80;99.90;;;;;;5135740;27;20226;-76
2024/02/10 10:09:30;;;;;;;7.65;6.95;;;13.90;99.90;;;;;;5136032;27;20249;-76
2024/02/10 10:11:57;;;;;;;7.10;6.47;;;13.90;99.90;;;;;;5136718;27;20245;-77
2024/02/10 10:14:24;;;;;;;8.00;6.60;;;13.90;99.90;;;;;;5135905;27;20466;-76
2024/02/10 10:16:56;;;;;;;7.07;6.45;;;13.90;99.90;;;;;;5136610;27;20236;-76
2024/02/10 10:19:26;;;;;;;7.88;7.07;;;13.90;99.90;;;;;;5135723;27;20741;-76
2024/02/10 10:21:53;;;;;;;6.60;6.00;;;13.90;99.90;;;;;;5136400;27;20245;-76
2024/02/10 10:24:22;;;;;;;7.70;7.00;;;14.00;99.90;;;;;;5135828;27;20468;-76
2024/02/10 10:26:50;;;;;;;11.07;8.25;;;14.00;99.90;;;;;;5136576;27;20305;-75
2024/02/10 10:29:19;;;;;;;9.87;7.80;;;14.00;99.90;;;;;;5137144;27;20693;-76
2024/02/10 10:31:49;;;;;;;7.10;6.28;;;14.00;99.90;;;;;;5136336;27;20959;-76
2024/02/10 10:34:19;;;;;;;5.90;5.40;;;14.00;99.90;;;;;;5135821;27;20675;-76
2024/02/10 10:36:48;;;;;;;7.03;6.38;;;14.00;99.90;;;;;;5136176;27;20470;-76
2024/02/10 10:39:15;;;;;;;5.60;5.20;;;14.10;99.90;;;;;;5135123;27;20604;-75
2024/02/10 10:41:45;;;;;;;6.50;5.95;;;14.10;99.90;;;;;;5136295;27;20560;-79
2024/02/10 10:44:16;;;;;;;8.73;6.40;;;14.10;99.90;;;;;;5135658;27;20319;-77
2024/02/10 10:46:44;;;;;;;7.63;6.37;;;14.10;99.90;;;;;;5135815;27;20463;-77
2024/02/10 10:49:19;;;;;;;6.07;5.47;;;14.10;99.90;;;;;;5135907;27;20525;-79
2024/02/10 10:51:52;;;;;;;6.20;5.60;;;14.10;99.90;;;;;;5136011;27;20218;-77
2024/02/10 10:54:19;;;;;;;5.83;5.33;;;14.10;99.90;;;;;;5135795;27;20456;-79
2024/02/10 10:56:49;;;;;;;7.50;5.57;;;14.10;99.90;;;;;;5135943;27;20960;-77
2024/02/10 10:59:23;;;;;;;8.70;5.40;;;14.10;99.90;;;;;;5135678;27;20913;-76
2024/02/10 11:01:51;;;;;;;7.07;6.37;;;14.20;99.90;;;;;;5135517;27;20464;-76
2024/02/10 11:04:32;;;;;;;7.33;6.63;;;14.20;99.90;;;;;;5134974;27;20595;-76
2024/02/10 11:07:36;;;;;;;7.80;7.03;;;14.20;99.90;;;;;;5139719;27;20472;-77
2024/02/10 11:10:08;;;;;;;7.20;6.60;;;14.30;99.90;;;;;;5139143;27;20466;-78
2024/02/10 11:12:36;;;;;;;7.43;5.90;;;14.30;99.90;;;;;;5134869;27;20986;-79
2024/02/10 11:15:09;;;;;;;6.87;6.23;;;14.30;99.90;;;;;;5135898;27;20467;-77
2024/02/10 11:17:36;;;;;;;7.00;6.00;;;14.40;99.90;;;;;;5135750;27;20555;-79
2024/02/10 11:20:13;;;;;;;6.70;6.10;;;14.40;99.90;;;;;;5134678;27;20486;-80
2024/02/10 11:22:43;;;;;;;6.50;5.90;;;14.40;99.90;;;;;;5135982;27;20471;-79
2024/02/10 11:25:15;;;;;;;5.80;5.30;;;14.40;99.90;;;;;;5136098;27;20474;-77
2024/02/10 11:27:43;;;;;;;8.43;6.67;;;14.40;99.90;;;;;;5135251;27;20862;-77
2024/02/10 11:30:11;;;;;;;8.30;6.83;;;14.40;99.90;;;;;;5136503;27;20468;-79
2024/02/10 11:32:39;;;;;;;7.77;6.93;;;14.40;99.90;;;;;;5135693;27;20467;-79
2024/02/10 11:35:09;;;;;;;6.67;5.97;;;14.50;99.90;;;;;;5135748;27;20510;-77
2024/02/10 11:37:39;;;;;;;7.72;7.03;;;14.50;99.90;;;;;;5134083;27;20468;-77
2024/02/10 11:40:10;;;;;;;6.00;5.50;;;14.50;99.90;;;;;;5135772;27;20557;-77
2024/02/10 11:42:37;;;;;;;6.17;5.67;;;14.50;99.90;;;;;;5134838;27;20555;-77
2024/02/10 11:45:09;;;;;;;6.83;6.20;;;14.50;99.90;;;;;;5135901;27;20509;-76
2024/02/10 11:47:38;;;;;;;7.00;6.30;;;14.50;99.90;;;;;;5135408;27;20490;-77
2024/02/10 11:50:15;;;;;;;5.57;5.10;;;14.50;99.90;;;;;;5135816;27;20554;-77
2024/02/10 11:52:42;;;;;;;5.40;4.90;;;14.50;99.90;;;;;;5135511;27;20478;-75
2024/02/10 11:55:10;;;;;;;6.50;5.90;;;14.50;99.90;;;;;;5135578;27;20460;-77
2024/02/10 11:57:41;;;;;;;6.17;5.67;;;14.60;99.90;;;;;;5132211;27;20479;-80
2024/02/10 12:00:12;;;;;;;7.37;6.67;;;14.60;99.90;;;;;;5135777;27;20467;-76
2024/02/10 12:02:40;;;;;;;6.27;5.67;;;14.60;99.90;;;;;;5134600;27;20498;-76
2024/02/10 12:05:09;;;;;;;6.00;4.83;;;14.70;99.90;;;;;;5134906;27;20537;-76
2024/02/10 12:07:37;;;;;;;5.43;5.00;;;14.70;99.90;;;;;;5134228;27;20459;-76
2024/02/10 12:10:06;;;;;;;5.87;5.37;;;14.80;99.90;;;;;;5135333;27;20487;-75
2024/02/10 12:12:35;;;;;;;6.83;6.13;;;14.80;99.90;;;;;;5123931;27;20480;-76
2024/02/10 12:15:03;;;;;;;7.37;6.67;;;14.80;99.90;;;;;;5134421;27;20463;-75
2024/02/10 12:17:32;;;;;;;5.97;5.47;;;14.80;99.90;;;;;;5134231;27;20456;-75
2024/02/10 12:20:01;;;;;;;5.93;5.33;;;14.80;99.90;;;;;;5133808;27;20463;-78
2024/02/10 12:22:28;;;;;;;7.27;6.67;;;14.90;99.90;;;;;;5134521;27;20475;-78
2024/02/10 12:25:01;;;;;;;6.57;5.87;;;14.90;99.90;;;;;;5133819;27;20508;-80
2024/02/10 12:27:31;;;;;;;6.60;5.93;;;14.90;99.90;;;;;;5133835;27;20491;-77
2024/02/10 12:30:03;;;;;;;5.60;5.00;;;15.00;99.90;;;;;;5133812;27;20486;-79
2024/02/10 12:32:37;;;;;;;4.23;3.77;;;15.00;99.90;;;;;;5134297;27;20472;-80
2024/02/10 12:35:12;;;;;;;4.57;4.17;;;15.00;99.90;;;;;;5133967;27;20495;-77
2024/02/10 12:37:39;;;;;;;4.70;4.30;;;15.00;99.90;;;;;;5134467;27;20486;-80
2024/02/10 12:40:10;;;;;;;4.33;3.93;;;15.10;99.90;;;;;;5130945;27;20524;-78
2024/02/10 12:42:42;;;;;;;5.10;4.60;;;15.10;99.90;;;;;;5134624;28;20957;-78
2024/02/10 12:45:13;;;;;;;4.87;4.47;;;15.10;99.90;;;;;;5134075;28;20455;-79
2024/02/10 12:47:42;;;;;;;5.30;4.90;;;15.10;99.90;;;;;;5122931;28;20464;-79
2024/02/10 12:50:11;;;;;;;5.20;4.70;;;15.20;99.90;;;;;;5134332;27;20455;-78
2024/02/10 12:52:39;;;;;;;4.33;4.03;;;15.10;99.90;;;;;;5134764;28;20531;-79